sensor_id;sensor_type;location;lat;lon;timestamp;pressure;altitude;pressure_sealevel;temperature;humidity
57038;BME280;59942;49.304;8.256;2023-12-29T00:01:34;100422.75;;;8.52;100.00
57038;BME280;59942;49.304;8.256;2023-12-29T00:04:03;100427.00;;;8.55;100.00
57038;BME280;59942;49.304;8.256;2023-12-29T00:06:30;100391.81;;;8.51;100.00
57038;BME280;59942;49.304;8.256;2023-12-29T00:08:59;100416.59;;;8.57;100.00
57038;BME280;59942;49.304;8.256;2023-12-29T00:11:26;100418.13;;;8.62;100.00
57038;BME280;59942;49.304;8.256;2023-12-29T00:13:55;100424.91;;;8.65;100.00
57038;BME280;59942;49.304;8.256;2023-12-29T00:16:21;100421.41;;;8.67;100.00
57038;BME280;59942;49.304;8.256;2023-12-29T00:18:55;100423.25;;;8.64;100.00
57038;BME280;59942;49.304;8.256;2023-12-29T00:21:22;100414.75;;;8.60;100.00
57038;BME280;59942;49.304;8.256;2023-12-29T00:23:48;100426.47;;;8.71;100.00
57038;BME280;59942;49.304;8.256;2023-12-29T00:26:18;100421.41;;;8.67;100.00
57038;BME280;59942;49.304;8.256;2023-12-29T00:28:44;100418.28;;;8.58;100.00
57038;BME280;59942;49.304;8.256;2023-12-29T00:31:15;100405.50;;;8.53;100.00
57038;BME280;59942;49.304;8.256;2023-12-29T00:33:44;100423.16;;;8.67;100.00
57038;BME280;59942;49.304;8.256;2023-12-29T00:36:18;100410.38;;;8.62;100.00
57038;BME280;59942;49.304;8.256;2023-12-29T00:38:45;100392.25;;;8.64;100.00
57038;BME280;59942;49.304;8.256;2023-12-29T00:41:17;100392.13;;;8.67;100.00
57038;BME280;59942;49.304;8.256;2023-12-29T00:43:43;100404.41;;;8.60;100.00
57038;BME280;59942;49.304;8.256;2023-12-29T00:46:16;100402.66;;;8.61;100.00
57038;BME280;59942;49.304;8.256;2023-12-29T00:48:42;100411.50;;;8.54;100.00
57038;BME280;59942;49.304;8.256;2023-12-29T00:51:09;100418.53;;;8.50;100.00
57038;BME280;59942;49.304;8.256;2023-12-29T00:53:36;100418.78;;;8.42;100.00
57038;BME280;59942;49.304;8.256;2023-12-29T00:56:07;100420.34;;;8.48;100.00
57038;BME280;59942;49.304;8.256;2023-12-29T00:58:38;100417.75;;;8.48;100.00
57038;BME280;59942;49.304;8.256;2023-12-29T01:01:08;100418.59;;;8.48;100.00
57038;BME280;59942;49.304;8.256;2023-12-29T01:03:37;100414.38;;;8.46;100.00
57038;BME280;59942;49.304;8.256;2023-12-29T01:06:04;100415.28;;;8.43;100.00
57038;BME280;59942;49.304;8.256;2023-12-29T01:08:30;100410.94;;;8.45;100.00
57038;BME280;59942;49.304;8.256;2023-12-29T01:10:57;100398.69;;;8.50;100.00
57038;BME280;59942;49.304;8.256;2023-12-29T01:13:26;100398.75;;;8.49;100.00
57038;BME280;59942;49.304;8.256;2023-12-29T01:15:52;100404.84;;;8.48;100.00
57038;BME280;59942;49.304;8.256;2023-12-29T01:18:21;100402.16;;;8.51;100.00
57038;BME280;59942;49.304;8.256;2023-12-29T01:20:50;100369.91;;;8.34;100.00
57038;BME280;59942;49.304;8.256;2023-12-29T01:23:21;100391.81;;;8.51;100.00
57038;BME280;59942;49.304;8.256;2023-12-29T01:25:48;100363.69;;;8.40;100.00
57038;BME280;59942;49.304;8.256;2023-12-29T01:28:15;100386.41;;;8.57;100.00
57038;BME280;59942;49.304;8.256;2023-12-29T01:30:41;100385.06;;;8.47;100.00
57038;BME280;59942;49.304;8.256;2023-12-29T01:33:09;100377.31;;;8.47;100.00
57038;BME280;59942;49.304;8.256;2023-12-29T01:35:41;100395.13;;;8.55;100.00
57038;BME280;59942;49.304;8.256;2023-12-29T01:38:07;100399.41;;;8.56;100.00
57038;BME280;59942;49.304;8.256;2023-12-29T01:40:46;100396.88;;;8.54;100.00
57038;BME280;59942;49.304;8.256;2023-12-29T01:43:13;100400.44;;;8.50;100.00
57038;BME280;59942;49.304;8.256;2023-12-29T01:45:39;100385.13;;;8.44;100.00
57038;BME280;59942;49.304;8.256;2023-12-29T01:48:22;100388.94;;;8.59;100.00
57038;BME280;59942;49.304;8.256;2023-12-29T01:50:53;100384.84;;;8.53;100.00
57038;BME280;59942;49.304;8.256;2023-12-29T01:53:21;100314.78;;;8.10;100.00
57038;BME280;59942;49.304;8.256;2023-12-29T01:56:00;100377.84;;;8.57;100.00
57038;BME280;59942;49.304;8.256;2023-12-29T01:58:27;100331.50;;;8.25;100.00
57038;BME280;59942;49.304;8.256;2023-12-29T02:00:54;100380.66;;;8.49;100.00
57038;BME280;59942;49.304;8.256;2023-12-29T02:03:21;100383.94;;;8.54;100.00
57038;BME280;59942;49.304;8.256;2023-12-29T02:05:48;100365.69;;;8.59;100.00
57038;BME280;59942;49.304;8.256;2023-12-29T02:08:16;100368.34;;;8.57;100.00
57038;BME280;59942;49.304;8.256;2023-12-29T02:10:43;100364.91;;;8.57;100.00
57038;BME280;59942;49.304;8.256;2023-12-29T02:13:09;100357.94;;;8.59;100.00
57038;BME280;59942;49.304;8.256;2023-12-29T02:15:38;100345.13;;;8.56;100.00
57038;BME280;59942;49.304;8.256;2023-12-29T02:18:07;100344.53;;;8.47;100.00
57038;BME280;59942;49.304;8.256;2023-12-29T02:20:36;100346.88;;;8.55;100.00
57038;BME280;59942;49.304;8.256;2023-12-29T02:23:03;100348.59;;;8.55;100.00
57038;BME280;59942;49.304;8.256;2023-12-29T02:25:34;100351.34;;;8.50;100.00
57038;BME280;59942;49.304;8.256;2023-12-29T02:28:26;100349.59;;;8.50;100.00
57038;BME280;59942;49.304;8.256;2023-12-29T02:31:01;100350.56;;;8.48;100.00
57038;BME280;59942;49.304;8.256;2023-12-29T02:33:38;100353.94;;;8.50;100.00
57038;BME280;59942;49.304;8.256;2023-12-29T02:36:07;100348.66;;;8.53;100.00
57038;BME280;59942;49.304;8.256;2023-12-29T02:38:34;100344.19;;;8.58;100.00
57038;BME280;59942;49.304;8.256;2023-12-29T02:41:00;100344.19;;;8.58;100.00
57038;BME280;59942;49.304;8.256;2023-12-29T02:43:27;100353.53;;;8.61;100.00
57038;BME280;59942;49.304;8.256;2023-12-29T02:45:53;100356.25;;;8.58;100.00
57038;BME280;59942;49.304;8.256;2023-12-29T02:48:22;100307.13;;;8.32;100.00
57038;BME280;59942;49.304;8.256;2023-12-29T02:50:49;100349.41;;;8.57;100.00
57038;BME280;59942;49.304;8.256;2023-12-29T02:53:18;100349.59;;;8.50;100.00
57038;BME280;59942;49.304;8.256;2023-12-29T02:55:47;100352.19;;;8.50;100.00
57038;BME280;59942;49.304;8.256;2023-12-29T02:58:13;100307.25;;;8.29;100.00
57038;BME280;59942;49.304;8.256;2023-12-29T03:00:42;100314.06;;;8.32;100.00
57038;BME280;59942;49.304;8.256;2023-12-29T03:03:11;100335.72;;;8.53;100.00
57038;BME280;59942;49.304;8.256;2023-12-29T03:05:38;100342.59;;;8.54;100.00
57038;BME280;59942;49.304;8.256;2023-12-29T03:08:05;100344.53;;;8.47;100.00
57038;BME280;59942;49.304;8.256;2023-12-29T03:10:34;100344.66;;;8.69;100.00
57038;BME280;59942;49.304;8.256;2023-12-29T03:13:00;100339.44;;;8.46;100.00
57038;BME280;59942;49.304;8.256;2023-12-29T03:15:30;100348.09;;;8.43;100.00
57038;BME280;59942;49.304;8.256;2023-12-29T03:17:59;100341.13;;;8.47;100.00
57038;BME280;59942;49.304;8.256;2023-12-29T03:20:26;100341.13;;;8.47;100.00
57038;BME280;59942;49.304;8.256;2023-12-29T03:22:52;100342.00;;;8.46;100.00
57038;BME280;59942;49.304;8.256;2023-12-29T03:25:19;100331.75;;;8.43;100.00
57038;BME280;59942;49.304;8.256;2023-12-29T03:27:48;100347.06;;;8.49;100.00
57038;BME280;59942;49.304;8.256;2023-12-29T03:30:17;100354.00;;;8.48;100.00
57038;BME280;59942;49.304;8.256;2023-12-29T03:32:43;100352.28;;;8.47;100.00
57038;BME280;59942;49.304;8.256;2023-12-29T03:35:12;100314.41;;;8.21;100.00
57038;BME280;59942;49.304;8.256;2023-12-29T03:37:39;100350.78;;;8.40;100.00
57038;BME280;59942;49.304;8.256;2023-12-29T03:40:06;100341.38;;;8.38;100.00
57038;BME280;59942;49.304;8.256;2023-12-29T03:42:33;100341.31;;;8.41;100.00
57038;BME280;59942;49.304;8.256;2023-12-29T03:44:59;100348.53;;;8.31;100.00
57038;BME280;59942;49.304;8.256;2023-12-29T03:47:28;100340.59;;;8.35;100.00
57038;BME280;59942;49.304;8.256;2023-12-29T03:49:56;100352.63;;;8.37;100.00
57038;BME280;59942;49.304;8.256;2023-12-29T03:52:23;100341.56;;;8.33;100.00
57038;BME280;59942;49.304;8.256;2023-12-29T03:54:49;100338.19;;;8.31;100.00
57038;BME280;59942;49.304;8.256;2023-12-29T03:57:20;100335.84;;;8.23;100.00
57038;BME280;59942;49.304;8.256;2023-12-29T03:59:49;100344.19;;;8.31;100.00
57038;BME280;59942;49.304;8.256;2023-12-29T04:02:16;100337.59;;;8.23;100.00
57038;BME280;59942;49.304;8.256;2023-12-29T04:04:44;100340.88;;;8.28;100.00
57038;BME280;59942;49.304;8.256;2023-12-29T04:07:10;100341.38;;;8.39;100.00
57038;BME280;59942;49.304;8.256;2023-12-29T04:09:39;100317.09;;;8.18;100.00
57038;BME280;59942;49.304;8.256;2023-12-29T04:12:06;100322.03;;;8.24;100.00
57038;BME280;59942;49.304;8.256;2023-12-29T04:14:32;100325.75;;;8.42;100.00
57038;BME280;59942;49.304;8.256;2023-12-29T04:16:59;100337.97;;;8.37;100.00
57038;BME280;59942;49.304;8.256;2023-12-29T04:19:29;100315.41;;;8.17;100.00
57038;BME280;59942;49.304;8.256;2023-12-29T04:21:55;100332.84;;;8.35;100.00
57038;BME280;59942;49.304;8.256;2023-12-29T04:24:22;100339.56;;;8.41;100.00
57038;BME280;59942;49.304;8.256;2023-12-29T04:26:51;100338.66;;;8.42;100.00
57038;BME280;59942;49.304;8.256;2023-12-29T04:29:22;100341.78;;;8.52;100.00
57038;BME280;59942;49.304;8.256;2023-12-29T04:31:49;100327.47;;;8.42;100.00
57038;BME280;59942;49.304;8.256;2023-12-29T04:34:16;100331.69;;;8.46;100.00
57038;BME280;59942;49.304;8.256;2023-12-29T04:36:45;100332.50;;;8.46;100.00
57038;BME280;59942;49.304;8.256;2023-12-29T04:39:13;100324.81;;;8.45;100.00
57038;BME280;59942;49.304;8.256;2023-12-29T04:41:42;100336.13;;;8.41;100.00
57038;BME280;59942;49.304;8.256;2023-12-29T04:44:14;100267.91;;;7.96;100.00
57038;BME280;59942;49.304;8.256;2023-12-29T04:46:43;100288.31;;;8.04;100.00
57038;BME280;59942;49.304;8.256;2023-12-29T04:49:09;100336.44;;;8.31;100.00
57038;BME280;59942;49.304;8.256;2023-12-29T04:51:36;100328.06;;;8.25;100.00
57038;BME280;59942;49.304;8.256;2023-12-29T04:54:05;100330.53;;;8.28;100.00
57038;BME280;59942;49.304;8.256;2023-12-29T04:56:32;100333.75;;;8.34;100.00
57038;BME280;59942;49.304;8.256;2023-12-29T04:58:58;100305.28;;;8.11;100.00
57038;BME280;59942;49.304;8.256;2023-12-29T05:01:27;100337.91;;;8.39;100.00
57038;BME280;59942;49.304;8.256;2023-12-29T05:03:54;100285.88;;;7.99;100.00
57038;BME280;59942;49.304;8.256;2023-12-29T05:06:23;100318.47;;;8.28;100.00
57038;BME280;59942;49.304;8.256;2023-12-29T05:08:50;100321.75;;;8.33;100.00
57038;BME280;59942;49.304;8.256;2023-12-29T05:11:16;100318.78;;;8.19;100.00
57038;BME280;59942;49.304;8.256;2023-12-29T05:13:43;100317.97;;;8.17;100.00
57038;BME280;59942;49.304;8.256;2023-12-29T05:16:09;100311.75;;;8.23;100.00
57038;BME280;59942;49.304;8.256;2023-12-29T05:18:36;100258.75;;;7.87;100.00
57038;BME280;59942;49.304;8.256;2023-12-29T05:21:03;100313.47;;;8.24;100.00
57038;BME280;59942;49.304;8.256;2023-12-29T05:23:34;100303.97;;;8.24;100.00
57038;BME280;59942;49.304;8.256;2023-12-29T05:26:00;100313.47;;;8.24;100.00
57038;BME280;59942;49.304;8.256;2023-12-29T05:28:32;100272.00;;;8.02;100.00
57038;BME280;59942;49.304;8.256;2023-12-29T05:30:58;100309.81;;;8.29;100.00
57038;BME280;59942;49.304;8.256;2023-12-29T05:33:33;100276.59;;;7.93;100.00
57038;BME280;59942;49.304;8.256;2023-12-29T05:36:06;100312.13;;;8.12;100.00
57038;BME280;59942;49.304;8.256;2023-12-29T05:38:38;100296.25;;;7.97;100.00
57038;BME280;59942;49.304;8.256;2023-12-29T05:41:05;100314.56;;;8.16;100.00
57038;BME280;59942;49.304;8.256;2023-12-29T05:43:32;100327.38;;;8.20;100.00
57038;BME280;59942;49.304;8.256;2023-12-29T05:46:01;100325.63;;;8.20;100.00
57038;BME280;59942;49.304;8.256;2023-12-29T05:48:28;100309.63;;;8.09;100.00
57038;BME280;59942;49.304;8.256;2023-12-29T05:50:54;100311.72;;;8.24;100.00
57038;BME280;59942;49.304;8.256;2023-12-29T05:53:21;100315.16;;;8.25;100.00
57038;BME280;59942;49.304;8.256;2023-12-29T05:55:50;100325.38;;;8.28;100.00
57038;BME280;59942;49.304;8.256;2023-12-29T05:58:18;100315.22;;;8.22;100.00
57038;BME280;59942;49.304;8.256;2023-12-29T06:00:47;100319.50;;;8.23;100.00
57038;BME280;59942;49.304;8.256;2023-12-29T06:03:14;100324.00;;;8.17;100.00
57038;BME280;59942;49.304;8.256;2023-12-29T06:05:41;100334.34;;;8.17;100.00
57038;BME280;59942;49.304;8.256;2023-12-29T06:08:12;100325.56;;;8.22;100.00
57038;BME280;59942;49.304;8.256;2023-12-29T06:10:39;100278.88;;;8.03;100.00
57038;BME280;59942;49.304;8.256;2023-12-29T06:13:07;100281.16;;;8.12;100.00
57038;BME280;59942;49.304;8.256;2023-12-29T06:15:34;100319.78;;;8.40;100.00
57038;BME280;59942;49.304;8.256;2023-12-29T06:18:01;100326.91;;;8.33;100.00
57038;BME280;59942;49.304;8.256;2023-12-29T06:20:28;100322.75;;;8.29;100.00
57038;BME280;59942;49.304;8.256;2023-12-29T06:22:55;100324.47;;;8.29;100.00
57038;BME280;59942;49.304;8.256;2023-12-29T06:25:27;100329.72;;;8.52;100.00
57038;BME280;59942;49.304;8.256;2023-12-29T06:27:53;100334.19;;;8.47;100.00
57038;BME280;59942;49.304;8.256;2023-12-29T06:30:23;100328.03;;;8.51;100.00
57038;BME280;59942;49.304;8.256;2023-12-29T06:32:49;100308.59;;;8.40;100.00
57038;BME280;59942;49.304;8.256;2023-12-29T06:35:21;100288.63;;;8.20;100.00
57038;BME280;59942;49.304;8.256;2023-12-29T06:37:48;100318.84;;;8.43;100.00
57038;BME280;59942;49.304;8.256;2023-12-29T06:40:17;100326.03;;;8.60;100.00
57038;BME280;59942;49.304;8.256;2023-12-29T06:42:43;100290.00;;;8.30;100.00
57038;BME280;59942;49.304;8.256;2023-12-29T06:45:10;100318.47;;;8.54;100.00
57038;BME280;59942;49.304;8.256;2023-12-29T06:47:36;100319.66;;;8.43;100.00
57038;BME280;59942;49.304;8.256;2023-12-29T06:50:03;100288.31;;;8.29;100.00
57038;BME280;59942;49.304;8.256;2023-12-29T06:52:33;100311.59;;;8.54;100.00
57038;BME280;59942;49.304;8.256;2023-12-29T06:55:06;100308.13;;;8.55;100.00
57038;BME280;59942;49.304;8.256;2023-12-29T06:57:35;100316.66;;;8.57;100.00
57038;BME280;59942;49.304;8.256;2023-12-29T07:00:03;100307.84;;;8.63;100.00
57038;BME280;59942;49.304;8.256;2023-12-29T07:02:32;100317.84;;;8.72;100.00
57038;BME280;59942;49.304;8.256;2023-12-29T07:04:58;100314.41;;;8.72;100.00
57038;BME280;59942;49.304;8.256;2023-12-29T07:07:25;100311.00;;;8.71;100.00
57038;BME280;59942;49.304;8.256;2023-12-29T07:09:52;100253.53;;;8.38;100.00
57038;BME280;59942;49.304;8.256;2023-12-29T07:12:18;100310.81;;;8.76;100.00
57038;BME280;59942;49.304;8.256;2023-12-29T07:14:45;100316.78;;;8.78;100.00
57038;BME280;59942;49.304;8.256;2023-12-29T07:17:11;100313.59;;;8.71;100.00
57038;BME280;59942;49.304;8.256;2023-12-29T07:19:38;100312.06;;;8.65;100.00
57038;BME280;59942;49.304;8.256;2023-12-29T07:22:07;100301.38;;;8.51;100.00
57038;BME280;59942;49.304;8.256;2023-12-29T07:24:35;100323.34;;;8.63;100.00
57038;BME280;59942;49.304;8.256;2023-12-29T07:27:03;100306.19;;;8.60;100.00
57038;BME280;59942;49.304;8.256;2023-12-29T07:29:30;100305.19;;;8.64;100.00
57038;BME280;59942;49.304;8.256;2023-12-29T07:31:56;100318.44;;;8.55;100.00
57038;BME280;59942;49.304;8.256;2023-12-29T07:34:25;100314.94;;;8.56;100.00
57038;BME280;59942;49.304;8.256;2023-12-29T07:36:52;100304.97;;;8.71;100.00
57038;BME280;59942;49.304;8.256;2023-12-29T07:39:19;100320.28;;;8.77;100.00
57038;BME280;59942;49.304;8.256;2023-12-29T07:41:46;100314.34;;;8.73;100.00
57038;BME280;59942;49.304;8.256;2023-12-29T07:44:15;100309.34;;;8.68;100.00
57038;BME280;59942;49.304;8.256;2023-12-29T07:46:42;100310.66;;;8.57;100.00
57038;BME280;59942;49.304;8.256;2023-12-29T07:49:11;100294.41;;;8.77;100.00
57038;BME280;59942;49.304;8.256;2023-12-29T07:51:42;100306.59;;;8.73;100.00
57038;BME280;59942;49.304;8.256;2023-12-29T07:54:11;100305.19;;;8.64;100.00
57038;BME280;59942;49.304;8.256;2023-12-29T07:56:38;100282.22;;;8.57;100.00
57038;BME280;59942;49.304;8.256;2023-12-29T07:59:04;100289.84;;;8.83;100.00
57038;BME280;59942;49.304;8.256;2023-12-29T08:01:36;100290.41;;;8.68;100.00
57038;BME280;59942;49.304;8.256;2023-12-29T08:04:03;100300.88;;;8.89;100.00
57038;BME280;59942;49.304;8.256;2023-12-29T08:06:30;100301.66;;;8.91;100.00
57038;BME280;59942;49.304;8.256;2023-12-29T08:08:59;100315.81;;;9.04;100.00
57038;BME280;59942;49.304;8.256;2023-12-29T08:11:25;100302.22;;;8.99;100.00
57038;BME280;59942;49.304;8.256;2023-12-29T08:13:54;100313.66;;;9.15;99.02
57038;BME280;59942;49.304;8.256;2023-12-29T08:16:23;100314.84;;;9.30;97.96
57038;BME280;59942;49.304;8.256;2023-12-29T08:18:50;100312.25;;;9.30;98.33
57038;BME280;59942;49.304;8.256;2023-12-29T08:21:20;100304.44;;;9.32;98.45
57038;BME280;59942;49.304;8.256;2023-12-29T08:23:49;100321.53;;;9.36;98.26
57038;BME280;59942;49.304;8.256;2023-12-29T08:26:15;100273.47;;;9.07;99.20
57038;BME280;59942;49.304;8.256;2023-12-29T08:28:42;100323.88;;;9.42;99.35
57038;BME280;59942;49.304;8.256;2023-12-29T08:31:09;100315.25;;;9.42;98.62
57038;BME280;59942;49.304;8.256;2023-12-29T08:33:38;100327.84;;;9.51;98.52
57038;BME280;59942;49.304;8.256;2023-12-29T08:36:05;100317.56;;;9.49;98.44
57038;BME280;59942;49.304;8.256;2023-12-29T08:38:35;100316.00;;;9.45;99.64
57038;BME280;59942;49.304;8.256;2023-12-29T08:41:02;100311.59;;;9.47;99.39
57038;BME280;59942;49.304;8.256;2023-12-29T08:43:29;100325.06;;;9.78;96.29
57038;BME280;59942;49.304;8.256;2023-12-29T08:45:55;100337.50;;;9.69;96.83
57038;BME280;59942;49.304;8.256;2023-12-29T08:48:22;100324.03;;;9.82;95.62
57038;BME280;59942;49.304;8.256;2023-12-29T08:50:49;100324.03;;;9.82;94.95
57038;BME280;59942;49.304;8.256;2023-12-29T08:53:16;100316.53;;;9.76;96.70
57038;BME280;59942;49.304;8.256;2023-12-29T08:55:48;100319.00;;;9.79;94.48
57038;BME280;59942;49.304;8.256;2023-12-29T08:58:17;100320.44;;;9.86;95.80
57038;BME280;59942;49.304;8.256;2023-12-29T09:00:44;100340.81;;;9.94;93.75
57038;BME280;59942;49.304;8.256;2023-12-29T09:03:13;100320.06;;;9.95;94.04
57038;BME280;59942;49.304;8.256;2023-12-29T09:05:39;100344.69;;;10.05;95.57
57038;BME280;59942;49.304;8.256;2023-12-29T09:08:06;100323.44;;;9.97;94.88
57038;BME280;59942;49.304;8.256;2023-12-29T09:10:32;100336.00;;;10.06;91.46
57038;BME280;59942;49.304;8.256;2023-12-29T09:13:01;100268.13;;;9.55;94.58
57038;BME280;59942;49.304;8.256;2023-12-29T09:15:28;100290.69;;;9.74;92.60
57038;BME280;59942;49.304;8.256;2023-12-29T09:17:54;100342.19;;;10.02;92.03
57038;BME280;59942;49.304;8.256;2023-12-29T09:20:21;100337.81;;;10.04;91.86
57038;BME280;59942;49.304;8.256;2023-12-29T09:22:50;100338.97;;;9.97;93.33
57038;BME280;59942;49.304;8.256;2023-12-29T09:25:18;100336.25;;;10.21;89.34
57038;BME280;59942;49.304;8.256;2023-12-29T09:27:47;100337.06;;;10.23;89.89
57038;BME280;59942;49.304;8.256;2023-12-29T09:30:16;100338.56;;;10.29;91.66
57038;BME280;59942;49.304;8.256;2023-12-29T09:32:47;100333.78;;;10.40;88.54
57038;BME280;59942;49.304;8.256;2023-12-29T09:35:16;100320.09;;;10.36;87.64
57038;BME280;59942;49.304;8.256;2023-12-29T09:37:43;100331.13;;;10.41;89.17
57038;BME280;59942;49.304;8.256;2023-12-29T09:40:12;100335.91;;;10.51;87.34
57038;BME280;59942;49.304;8.256;2023-12-29T09:42:43;100335.63;;;10.77;85.52
57038;BME280;59942;49.304;8.256;2023-12-29T09:45:12;100324.88;;;10.46;89.29
57038;BME280;59942;49.304;8.256;2023-12-29T09:47:41;100341.16;;;10.49;85.53
57038;BME280;59942;49.304;8.256;2023-12-29T09:50:10;100335.00;;;10.52;84.99
57038;BME280;59942;49.304;8.256;2023-12-29T09:52:39;100327.47;;;10.46;86.26
57038;BME280;59942;49.304;8.256;2023-12-29T09:55:09;100306.25;;;10.37;87.03
57038;BME280;59942;49.304;8.256;2023-12-29T09:57:40;100323.03;;;10.49;84.38
57038;BME280;59942;49.304;8.256;2023-12-29T10:00:10;100313.97;;;10.39;85.92
57038;BME280;59942;49.304;8.256;2023-12-29T10:02:37;100324.75;;;10.69;83.54
57038;BME280;59942;49.304;8.256;2023-12-29T10:05:07;100306.00;;;10.63;82.49
57038;BME280;59942;49.304;8.256;2023-12-29T10:07:39;100312.81;;;10.65;83.38
57038;BME280;59942;49.304;8.256;2023-12-29T10:10:06;100316.75;;;10.74;82.00
57038;BME280;59942;49.304;8.256;2023-12-29T10:12:35;100316.06;;;10.70;84.14
57038;BME280;59942;49.304;8.256;2023-12-29T10:17:59;100310.09;;;10.68;84.53
57038;BME280;59942;49.304;8.256;2023-12-29T10:23:20;100302.09;;;10.73;84.78
57038;BME280;59942;49.304;8.256;2023-12-29T10:25:51;100305.19;;;10.62;84.71
57038;BME280;59942;49.304;8.256;2023-12-29T10:28:18;100303.88;;;10.72;84.89
57038;BME280;59942;49.304;8.256;2023-12-29T10:30:45;100303.31;;;10.85;83.52
57038;BME280;59942;49.304;8.256;2023-12-29T10:33:19;100303.41;;;10.63;83.73
57038;BME280;59942;49.304;8.256;2023-12-29T10:36:01;100303.56;;;10.78;84.23
57038;BME280;59942;49.304;8.256;2023-12-29T10:38:33;100262.66;;;10.66;83.88
57038;BME280;59942;49.304;8.256;2023-12-29T10:41:13;100314.31;;;11.09;81.85
57038;BME280;59942;49.304;8.256;2023-12-29T10:43:41;100310.91;;;11.08;83.64
57038;BME280;59942;49.304;8.256;2023-12-29T10:46:10;100299.75;;;11.06;82.09
57038;BME280;59942;49.304;8.256;2023-12-29T10:48:37;100292.94;;;11.23;81.23
57038;BME280;59942;49.304;8.256;2023-12-29T10:51:05;100297.69;;;11.32;79.29
57038;BME280;59942;49.304;8.256;2023-12-29T10:53:32;100286.13;;;11.20;82.53
57038;BME280;59942;49.304;8.256;2023-12-29T10:56:03;100274.69;;;11.24;82.20
57038;BME280;59942;49.304;8.256;2023-12-29T10:58:33;100297.88;;;11.46;78.51
57038;BME280;59942;49.304;8.256;2023-12-29T11:01:13;100263.03;;;11.33;78.91
57038;BME280;59942;49.304;8.256;2023-12-29T11:03:57;100286.34;;;11.52;80.72
57038;BME280;59942;49.304;8.256;2023-12-29T11:06:24;100281.56;;;11.62;79.56
57038;BME280;59942;49.304;8.256;2023-12-29T11:08:51;100284.13;;;11.44;79.86
57038;BME280;59942;49.304;8.256;2023-12-29T11:11:18;100275.97;;;11.52;78.92
57038;BME280;59942;49.304;8.256;2023-12-29T11:13:46;100277.00;;;11.30;80.70
57038;BME280;59942;49.304;8.256;2023-12-29T11:16:14;100282.44;;;11.43;81.71
57038;BME280;59942;49.304;8.256;2023-12-29T11:18:43;100284.94;;;11.27;80.40
57038;BME280;59942;49.304;8.256;2023-12-29T11:21:11;100274.31;;;11.32;83.77
57038;BME280;59942;49.304;8.256;2023-12-29T11:23:38;100284.50;;;11.37;81.61
57038;BME280;59942;49.304;8.256;2023-12-29T11:26:07;100282.28;;;11.46;79.24
57038;BME280;59942;49.304;8.256;2023-12-29T11:28:34;100283.22;;;11.45;81.13
57038;BME280;59942;49.304;8.256;2023-12-29T11:31:01;100278.03;;;11.45;79.10
57038;BME280;59942;49.304;8.256;2023-12-29T11:33:38;100277.97;;;11.47;80.24
57038;BME280;59942;49.304;8.256;2023-12-29T11:36:27;100280.50;;;11.66;78.60
57038;BME280;59942;49.304;8.256;2023-12-29T11:41:56;100178.38;;;11.48;74.84
57038;BME280;59942;49.304;8.256;2023-12-29T11:44:30;100249.09;;;11.88;75.50
57038;BME280;59942;49.304;8.256;2023-12-29T11:46:57;100265.84;;;11.82;76.28
57038;BME280;59942;49.304;8.256;2023-12-29T11:50:00;100270.63;;;11.73;78.92
57038;BME280;59942;49.304;8.256;2023-12-29T11:52:34;100265.69;;;11.68;79.38
57038;BME280;59942;49.304;8.256;2023-12-29T11:55:12;100262.47;;;11.63;78.44
57038;BME280;59942;49.304;8.256;2023-12-29T11:57:39;100258.59;;;11.72;77.21
57038;BME280;59942;49.304;8.256;2023-12-29T12:00:10;100243.69;;;11.58;80.57
57038;BME280;59942;49.304;8.256;2023-12-29T12:02:40;100248.56;;;11.64;79.18
57038;BME280;59942;49.304;8.256;2023-12-29T12:05:11;100251.69;;;11.53;79.42
57038;BME280;59942;49.304;8.256;2023-12-29T12:10:31;100244.06;;;11.50;78.06
57038;BME280;59942;49.304;8.256;2023-12-29T12:12:59;100222.75;;;11.43;79.05
57038;BME280;59942;49.304;8.256;2023-12-29T12:18:03;100240.75;;;11.46;77.87
57038;BME280;59942;49.304;8.256;2023-12-29T12:20:32;100231.88;;;11.33;78.69
57038;BME280;59942;49.304;8.256;2023-12-29T12:23:04;100235.88;;;11.40;80.08
57038;BME280;59942;49.304;8.256;2023-12-29T12:25:34;100233.56;;;11.34;81.07
57038;BME280;59942;49.304;8.256;2023-12-29T12:28:07;100222.94;;;11.21;81.57
57038;BME280;59942;49.304;8.256;2023-12-29T12:30:34;100230.81;;;11.20;81.29
57038;BME280;59942;49.304;8.256;2023-12-29T12:33:04;100197.88;;;11.03;79.73
57038;BME280;59942;49.304;8.256;2023-12-29T12:35:32;100234.72;;;11.28;81.37
57038;BME280;59942;49.304;8.256;2023-12-29T12:40:36;100236.91;;;11.19;82.41
57038;BME280;59942;49.304;8.256;2023-12-29T12:43:04;100240.97;;;11.24;83.62
57038;BME280;59942;49.304;8.256;2023-12-29T12:45:34;100177.38;;;10.79;83.53
57038;BME280;59942;49.304;8.256;2023-12-29T12:48:09;100232.84;;;11.13;83.39
57038;BME280;59942;49.304;8.256;2023-12-29T12:50:44;100234.75;;;11.09;83.18
57038;BME280;59942;49.304;8.256;2023-12-29T12:53:14;100224.03;;;10.98;84.85
57038;BME280;59942;49.304;8.256;2023-12-29T12:55:50;100251.13;;;11.29;82.59
57038;BME280;59942;49.304;8.256;2023-12-29T12:58:18;100204.47;;;10.91;81.48
57038;BME280;59942;49.304;8.256;2023-12-29T13:00:48;100251.06;;;11.11;84.00
57038;BME280;59942;49.304;8.256;2023-12-29T13:03:21;100251.22;;;11.08;84.94
57038;BME280;59942;49.304;8.256;2023-12-29T13:05:51;100257.59;;;11.20;84.84
57038;BME280;59942;49.304;8.256;2023-12-29T13:08:18;100260.53;;;11.12;85.69
57038;BME280;59942;49.304;8.256;2023-12-29T13:10:59;100249.78;;;11.20;84.27
57038;BME280;59942;49.304;8.256;2023-12-29T13:13:42;100262.06;;;10.98;85.52
57038;BME280;59942;49.304;8.256;2023-12-29T13:16:12;100255.00;;;11.01;85.23